Strona główna
METAR-TAF:

METAR-TAF

Lotnisko :

Roi Et, Tajlandia

Szerokość geograficzna: 16-07-00N, Długość geograficzna: 103-46-26E, wysokość: 138 m

Aktualna obserwacja pogody

Raport powstał 5 godziny i 42 minut temu, godzina 14:00 UTC
Wiatr 8 kt od północny wschód
Temperatura 25°C
Wilgotność 61%
Ciśnienie 1015 hPa
Widzialność: 9000 m
Mało chmury na wysokości 3500 ft
Rozproszone chmury na wysokości 10000 ft

METAR: VTUV 091400Z 04008KT 9000 FEW035 SCT100 25/17 Q1015 NOSIG

czas: 02:42 (19:42 UTC)

Prognoza

Raport powstał 2 godziny i 42 minut temu, godzina 17:00 UTC
Prognoza ważna od 09 godzina 18 UTC do 10 godzina 18 UTC
Wiatr 10 kt od północny wschód
Widzialność: 8000 m
Mało chmury na wysokości 3000 ft
Stopniowe zmiany
od 10 godzina 04 UTC do 10 godzina 06 UTC
Wiatr 5 kt od północny wschód
Widzialność: 9000 m
Rozproszone chmury na wysokości 3000 ft

TAF: VTUV 091700Z 0918/1018 04010KT 8000 FEW030 BECMG 1004/1006 05005KT 9000 SCT030

Obserwacja i prognoza pogody dla ponad 4000 lotnisk (raport METAR i TAF).

Dostępne stacje oznaczono żółtymi i czerwonymi punktami na mapie.

Najedź kursorem aby zobaczyć nazwę stacji.

Kliknij aby zobaczyć obserwacje i prognozy pogody.

Aby zmienić mapę: kliknij na zielony przycisk z czarnym krzyżykiem, aby powiększyć; na zielony przycisk z myślnikiem, aby pomniejszyć; na zielone strzałki, aby przejść do map sąsiednich.


METAR-TAF: